createdAt,value
2018-03-06T00:00:05.466Z,9.90
2018-03-06T00:02:33.801Z,10.33
2018-03-06T00:05:02.134Z,11.30
2018-03-06T00:07:30.444Z,10.20
2018-03-06T00:09:58.758Z,10.43
2018-03-06T00:12:27.065Z,10.63
2018-03-06T00:14:55.493Z,10.97
2018-03-06T00:17:23.800Z,11.20
2018-03-06T00:19:52.131Z,11.00
2018-03-06T00:22:21.227Z,10.30
2018-03-06T00:24:50.337Z,11.50
2018-03-06T00:27:19.528Z,10.80
2018-03-06T00:29:48.593Z,11.83
2018-03-06T00:32:16.902Z,11.17
2018-03-06T00:34:45.990Z,11.87
2018-03-06T00:37:14.334Z,12.10
2018-03-06T00:39:42.643Z,11.13
2018-03-06T00:42:10.974Z,11.00
2018-03-06T00:44:39.284Z,11.50
2018-03-06T00:47:07.947Z,11.47
2018-03-06T00:49:36.256Z,11.40
2018-03-06T00:52:04.593Z,10.67
2018-03-06T00:54:33.691Z,10.83
2018-03-06T00:57:02.952Z,11.30
2018-03-06T00:59:31.304Z,10.77
2018-03-06T01:01:59.626Z,12.00
2018-03-06T01:04:27.956Z,11.00
2018-03-06T01:06:56.454Z,11.87
2018-03-06T01:09:24.775Z,11.53
2018-03-06T01:11:53.096Z,12.27
2018-03-06T01:14:21.424Z,10.83
2018-03-06T01:16:49.742Z,11.27
2018-03-06T01:19:18.852Z,12.17
2018-03-06T01:21:47.164Z,12.47
2018-03-06T01:24:15.487Z,11.67
2018-03-06T01:26:44.580Z,11.90
2018-03-06T01:29:12.902Z,11.43
2018-03-06T01:31:41.208Z,12.90
2018-03-06T01:34:09.532Z,12.40
2018-03-06T01:36:38.625Z,12.10
2018-03-06T01:39:07.708Z,12.93
2018-03-06T01:41:36.032Z,13.10
2018-03-06T01:44:04.346Z,13.63
2018-03-06T01:46:32.709Z,13.00
2018-03-06T01:49:01.556Z,12.87
2018-03-06T01:51:29.846Z,13.00
2018-03-06T01:53:58.948Z,13.83
2018-03-06T01:56:28.042Z,14.30
2018-03-06T01:58:57.124Z,12.83
2018-03-06T02:01:25.436Z,13.40
2018-03-06T02:03:54.521Z,14.03
2018-03-06T02:06:23.600Z,14.17
2018-03-06T02:08:51.910Z,13.90
2018-03-06T02:11:20.986Z,13.13
2018-03-06T02:13:49.301Z,13.87
2018-03-06T02:16:17.649Z,13.80
2018-03-06T02:18:46.045Z,14.53
2018-03-06T02:21:15.975Z,15.43
2018-03-06T02:23:45.056Z,15.27
2018-03-06T02:26:13.366Z,15.20
2018-03-06T02:28:41.844Z,14.60
2018-03-06T02:31:10.170Z,14.40
2018-03-06T02:33:38.572Z,16.13
2018-03-06T02:36:07.004Z,13.60
2018-03-06T02:38:35.332Z,15.03
2018-03-06T02:41:03.664Z,14.43
2018-03-06T02:43:31.995Z,14.53
2018-03-06T02:46:12.194Z,14.23
2018-03-06T02:48:40.512Z,14.03
2018-03-06T02:51:08.844Z,15.63
2018-03-06T02:53:37.148Z,15.10
2018-03-06T02:56:05.680Z,15.40
2018-03-06T02:58:34.772Z,14.53
2018-03-06T03:01:03.100Z,15.67
2018-03-06T03:03:31.430Z,15.87
2018-03-06T03:05:59.801Z,15.17
2018-03-06T03:08:28.128Z,15.63
2018-03-06T03:10:57.251Z,15.93
2018-03-06T03:13:25.562Z,14.50
2018-03-06T03:15:53.890Z,16.57
2018-03-06T03:18:23.068Z,16.07
2018-03-06T03:20:51.374Z,15.40
2018-03-06T03:23:20.485Z,16.13
2018-03-06T03:25:48.788Z,14.80
2018-03-06T03:28:17.106Z,15.10
2018-03-06T03:30:45.427Z,16.23
2018-03-06T03:33:13.748Z,15.20
2018-03-06T03:35:42.066Z,16.40
2018-03-06T03:38:11.160Z,15.70
2018-03-06T03:40:40.260Z,15.93
2018-03-06T03:43:09.347Z,17.23
2018-03-06T03:45:37.713Z,17.13
2018-03-06T03:48:05.978Z,17.23
2018-03-06T03:50:34.322Z,16.87
2018-03-06T03:53:02.635Z,18.23
2018-03-06T03:55:31.043Z,18.30
2018-03-06T03:57:59.342Z,16.93
2018-03-06T04:00:28.423Z,17.40
2018-03-06T04:02:56.728Z,18.10
2018-03-06T04:05:25.801Z,17.73
2018-03-06T04:07:54.139Z,17.43
2018-03-06T04:10:22.453Z,18.63
2018-03-06T04:12:50.780Z,17.17
2018-03-06T04:15:19.847Z,18.17
2018-03-06T04:17:48.194Z,17.67
2018-03-06T04:20:16.540Z,20.47
2018-03-06T04:22:45.631Z,18.33
2018-03-06T04:25:14.723Z,18.13
2018-03-06T04:27:43.796Z,18.60
2018-03-06T04:30:12.119Z,18.60
2018-03-06T04:32:41.206Z,20.80
2018-03-06T04:35:10.277Z,20.73
2018-03-06T04:37:38.587Z,20.50
2018-03-06T04:40:07.670Z,19.20
2018-03-06T04:42:35.971Z,20.30
2018-03-06T04:45:05.060Z,21.23
2018-03-06T04:47:34.135Z,21.07
2018-03-06T04:50:02.449Z,21.20
2018-03-06T04:52:31.528Z,21.87
2018-03-06T04:54:59.954Z,21.73
2018-03-06T04:57:28.274Z,21.23
2018-03-06T04:59:56.598Z,22.60
2018-03-06T05:02:24.927Z,21.90
2018-03-06T05:04:53.290Z,21.83
2018-03-06T05:07:21.616Z,22.20
2018-03-06T05:09:49.932Z,23.57
2018-03-06T05:12:18.228Z,22.97
2018-03-06T05:14:46.617Z,22.57
2018-03-06T05:17:14.988Z,24.00
2018-03-06T05:19:43.332Z,24.50
2018-03-06T05:22:12.408Z,23.17
2018-03-06T05:24:40.721Z,25.10
2018-03-06T05:27:09.805Z,24.13
2018-03-06T05:29:38.145Z,25.77
2018-03-06T05:32:06.646Z,23.70
2018-03-06T05:34:34.982Z,27.23
2018-03-06T05:37:03.309Z,25.60
2018-03-06T05:39:31.620Z,25.63
2018-03-06T05:42:00.712Z,26.63
2018-03-06T05:44:29.863Z,27.13
2018-03-06T05:46:58.193Z,27.27
2018-03-06T05:49:26.507Z,27.17
2018-03-06T05:51:54.815Z,27.10
2018-03-06T05:54:23.145Z,27.37
2018-03-06T05:56:53.108Z,25.57
2018-03-06T05:59:21.445Z,26.63
2018-03-06T06:01:50.543Z,27.50
2018-03-06T06:04:19.622Z,26.83
2018-03-06T06:06:47.951Z,26.80
2018-03-06T06:09:16.271Z,27.60
2018-03-06T06:11:44.603Z,28.20
2018-03-06T06:14:13.680Z,29.20
2018-03-06T06:16:41.988Z,26.93
2018-03-06T06:19:10.289Z,30.30
2018-03-06T06:21:38.619Z,30.70
2018-03-06T06:24:06.908Z,29.90
2018-03-06T06:26:35.995Z,28.67
2018-03-06T06:29:04.325Z,28.30
2018-03-06T06:31:32.677Z,27.70
2018-03-06T06:34:01.750Z,27.67
2018-03-06T06:36:30.068Z,29.97
2018-03-06T06:38:59.143Z,28.20
2018-03-06T06:41:27.460Z,28.47
2018-03-06T06:43:55.769Z,27.40
2018-03-06T06:46:24.073Z,27.03
2018-03-06T06:48:52.404Z,26.17
2018-03-06T06:51:20.698Z,28.80
2018-03-06T06:53:49.421Z,26.87
2018-03-06T06:56:17.733Z,27.33
2018-03-06T06:58:47.784Z,26.03
2018-03-06T07:01:16.165Z,27.03
2018-03-06T07:03:44.476Z,27.70
2018-03-06T07:06:12.829Z,26.77
2018-03-06T07:08:41.265Z,27.93
2018-03-06T07:11:09.698Z,27.37
2018-03-06T07:13:38.013Z,28.17
2018-03-06T07:16:06.313Z,26.70
2018-03-06T07:18:35.364Z,25.70
2018-03-06T07:21:03.667Z,25.90
2018-03-06T07:23:31.983Z,24.30
2018-03-06T07:26:01.120Z,26.10
2018-03-06T07:28:29.450Z,24.43
2018-03-06T07:30:57.754Z,24.70
2018-03-06T07:33:26.851Z,24.80
2018-03-06T07:35:55.933Z,22.57
2018-03-06T07:38:24.223Z,22.80
2018-03-06T07:40:53.297Z,24.43
2018-03-06T07:43:21.637Z,24.00
2018-03-06T07:45:50.835Z,22.53
2018-03-06T07:48:19.149Z,23.63
2018-03-06T07:50:47.453Z,21.70
2018-03-06T07:53:15.751Z,22.80
2018-03-06T07:55:44.817Z,23.50
2018-03-06T07:58:13.417Z,23.10
2018-03-06T08:00:41.725Z,23.30
2018-03-06T08:03:10.090Z,22.90
2018-03-06T08:05:38.439Z,23.27
2018-03-06T08:08:06.754Z,21.90
2018-03-06T08:10:35.896Z,22.90
2018-03-06T08:13:04.183Z,23.20
2018-03-06T08:15:32.799Z,22.77
2018-03-06T08:18:01.872Z,23.70
2018-03-06T08:20:30.162Z,22.40
2018-03-06T08:22:58.485Z,22.70
2018-03-06T08:25:27.641Z,23.30
2018-03-06T08:27:55.948Z,23.80
2018-03-06T08:30:24.243Z,23.23
2018-03-06T08:32:53.313Z,23.77
2018-03-06T08:35:21.635Z,22.90
2018-03-06T08:37:50.711Z,21.90
2018-03-06T08:40:19.031Z,21.53
2018-03-06T08:42:47.362Z,22.93
2018-03-06T08:45:17.171Z,21.63
2018-03-06T08:47:45.480Z,22.20
2018-03-06T08:50:14.616Z,21.77
2018-03-06T08:52:42.923Z,22.10
2018-03-06T08:55:11.237Z,21.53
2018-03-06T08:57:39.557Z,21.40
2018-03-06T09:00:07.892Z,21.00
2018-03-06T09:02:36.217Z,21.27
2018-03-06T09:05:04.605Z,19.80
2018-03-06T09:07:32.969Z,21.27
2018-03-06T09:10:01.259Z,22.73
2018-03-06T09:12:29.583Z,21.50
2018-03-06T09:14:57.892Z,21.83
2018-03-06T09:17:27.005Z,22.20
2018-03-06T09:19:56.085Z,22.10
2018-03-06T09:22:24.399Z,21.70
2018-03-06T09:24:52.765Z,23.00
2018-03-06T09:27:21.845Z,24.63
2018-03-06T09:29:50.164Z,23.70
2018-03-06T09:32:18.749Z,25.37
2018-03-06T09:34:47.052Z,26.40
2018-03-06T09:37:15.411Z,28.50
2018-03-06T09:39:43.723Z,27.30
2018-03-06T09:42:12.022Z,22.07
2018-03-06T09:44:40.350Z,21.20
2018-03-06T09:47:08.661Z,21.40
2018-03-06T09:49:37.047Z,20.70
2018-03-06T09:52:05.381Z,21.70
2018-03-06T09:54:33.918Z,20.60
2018-03-06T09:57:02.231Z,20.07
2018-03-06T09:59:30.557Z,21.50
2018-03-06T10:01:58.888Z,20.53
2018-03-06T10:04:27.218Z,20.37
2018-03-06T10:06:55.532Z,21.93
2018-03-06T10:09:23.839Z,21.70
2018-03-06T10:11:52.154Z,21.90
2018-03-06T10:14:20.451Z,20.67
2018-03-06T10:16:48.778Z,21.20
2018-03-06T10:19:17.091Z,21.03
2018-03-06T10:21:46.223Z,20.97
2018-03-06T10:24:14.522Z,20.87
2018-03-06T10:26:42.835Z,21.70
2018-03-06T10:29:11.912Z,20.20
2018-03-06T10:31:40.239Z,20.63
2018-03-06T10:34:08.536Z,18.77
2018-03-06T10:36:36.993Z,20.63
2018-03-06T10:39:07.791Z,19.77
2018-03-06T10:41:36.140Z,20.20
2018-03-06T10:44:04.512Z,21.33
2018-03-06T10:46:32.819Z,21.00
2018-03-06T10:49:01.154Z,20.63
2018-03-06T10:51:29.658Z,20.83
2018-03-06T10:53:57.976Z,22.10
2018-03-06T10:56:26.301Z,20.87
2018-03-06T10:58:55.368Z,21.43
2018-03-06T11:01:25.644Z,21.17
2018-03-06T11:03:53.937Z,21.33
2018-03-06T11:06:22.303Z,21.03
2018-03-06T11:08:50.626Z,21.47
2018-03-06T11:11:18.985Z,23.00
2018-03-06T11:13:48.041Z,21.73
2018-03-06T11:16:17.122Z,21.20
2018-03-06T11:18:45.548Z,20.70
2018-03-06T11:21:13.860Z,22.03
2018-03-06T11:23:42.165Z,20.63
2018-03-06T11:26:10.472Z,22.17
2018-03-06T11:28:39.563Z,21.53
2018-03-06T11:31:08.728Z,20.87
2018-03-06T11:33:37.804Z,20.90
2018-03-06T11:36:06.120Z,21.67
2018-03-06T11:38:34.431Z,21.77
2018-03-06T11:41:02.767Z,21.50
2018-03-06T11:43:31.091Z,21.07
2018-03-06T11:46:00.173Z,21.87
2018-03-06T11:48:28.480Z,22.50
2018-03-06T11:50:56.796Z,21.73
2018-03-06T11:53:25.107Z,22.40
2018-03-06T11:55:53.411Z,22.10
2018-03-06T11:58:21.869Z,23.10
2018-03-06T12:00:50.237Z,21.80
2018-03-06T12:03:18.572Z,21.83
2018-03-06T12:05:46.892Z,22.30
2018-03-06T12:08:15.226Z,21.20
2018-03-06T12:10:44.316Z,20.47
2018-03-06T12:13:13.396Z,21.10
2018-03-06T12:15:41.696Z,21.77
2018-03-06T12:18:10.826Z,21.90
2018-03-06T12:20:39.202Z,20.73
2018-03-06T12:23:07.504Z,20.23
2018-03-06T12:25:35.821Z,21.33
2018-03-06T12:28:04.127Z,20.60
2018-03-06T12:30:33.214Z,19.23
2018-03-06T12:33:02.277Z,19.43
2018-03-06T12:35:30.582Z,18.03
2018-03-06T12:37:59.807Z,16.83
2018-03-06T12:40:28.128Z,16.93
2018-03-06T12:42:56.506Z,18.70
2018-03-06T12:45:24.818Z,16.70
2018-03-06T12:47:53.142Z,16.70
2018-03-06T12:50:21.458Z,16.70
2018-03-06T12:52:49.764Z,18.00
2018-03-06T12:55:18.084Z,18.50
2018-03-06T12:57:46.420Z,16.27
2018-03-06T13:00:14.724Z,15.80
2018-03-06T13:02:43.820Z,15.80
2018-03-06T13:05:12.904Z,14.10
2018-03-06T13:07:42.027Z,15.40
2018-03-06T13:10:11.118Z,16.00
2018-03-06T13:12:40.250Z,15.70
2018-03-06T13:15:08.562Z,15.50
2018-03-06T13:17:36.884Z,16.10
2018-03-06T13:20:05.958Z,16.13
2018-03-06T13:22:34.268Z,15.13
2018-03-06T13:25:03.719Z,16.10
2018-03-06T13:27:32.041Z,15.97
2018-03-06T13:30:02.151Z,15.50
2018-03-06T13:32:30.879Z,14.93
2018-03-06T13:35:00.926Z,14.50
2018-03-06T13:37:29.259Z,14.37
2018-03-06T13:39:58.390Z,15.83
2018-03-06T13:42:26.716Z,14.70
2018-03-06T13:44:55.248Z,15.20
2018-03-06T13:47:23.574Z,14.23
2018-03-06T13:49:51.893Z,12.53
2018-03-06T13:52:20.986Z,9.73
2018-03-06T13:54:50.115Z,9.00
2018-03-06T13:57:18.472Z,9.60
2018-03-06T13:59:47.576Z,7.50
2018-03-06T14:02:16.648Z,7.40
2018-03-06T14:04:45.792Z,7.67
2018-03-06T14:07:14.188Z,6.93
2018-03-06T14:09:42.504Z,5.10
2018-03-06T14:12:10.814Z,6.30
2018-03-06T14:14:39.886Z,5.60
2018-03-06T14:17:08.192Z,4.37
2018-03-06T14:19:37.267Z,4.23
2018-03-06T14:22:05.587Z,4.70
2018-03-06T14:24:33.901Z,4.33
2018-03-06T14:27:02.218Z,4.97
2018-03-06T14:29:30.587Z,4.00
2018-03-06T14:31:59.309Z,4.77
2018-03-06T14:34:28.400Z,3.90
2018-03-06T14:36:57.493Z,3.30
2018-03-06T14:39:25.808Z,2.80
2018-03-06T14:41:54.116Z,2.80
2018-03-06T14:44:22.686Z,2.83
2018-03-06T14:46:50.997Z,3.30
2018-03-06T14:49:19.318Z,3.03
2018-03-06T14:51:48.463Z,3.13
2018-03-06T14:54:16.770Z,3.23
2018-03-06T14:56:45.086Z,3.20
2018-03-06T14:59:14.152Z,3.40
2018-03-06T15:01:43.983Z,4.53
2018-03-06T15:04:13.052Z,3.17
2018-03-06T15:06:41.366Z,3.00
2018-03-06T15:09:09.670Z,3.00
2018-03-06T15:11:37.968Z,3.30
2018-03-06T15:14:06.268Z,2.77
2018-03-06T15:16:34.903Z,3.03
2018-03-06T15:19:03.974Z,3.27
2018-03-06T15:21:32.264Z,3.37
2018-03-06T15:24:00.603Z,2.87
2018-03-06T15:26:28.969Z,3.40
2018-03-06T15:28:57.266Z,3.43
2018-03-06T15:31:25.615Z,3.90
2018-03-06T15:33:53.915Z,3.80
2018-03-06T15:36:22.963Z,4.60
2018-03-06T15:38:51.258Z,4.77
2018-03-06T15:41:20.374Z,4.45
2018-03-06T15:43:48.728Z,3.47
2018-03-06T15:46:17.084Z,3.17
2018-03-06T15:48:45.566Z,3.07
2018-03-06T15:51:13.897Z,2.90
2018-03-06T15:53:43.043Z,2.63
2018-03-06T15:56:11.449Z,2.30
2018-03-06T15:58:40.589Z,2.83
2018-03-06T16:01:08.996Z,2.77
2018-03-06T16:03:37.322Z,3.13
2018-03-06T16:06:05.678Z,2.97
2018-03-06T16:08:34.053Z,3.40
2018-03-06T16:11:02.440Z,2.40
2018-03-06T16:13:30.804Z,3.17
2018-03-06T16:15:59.196Z,3.00
2018-03-06T16:18:27.671Z,2.90
2018-03-06T16:20:56.048Z,2.80
2018-03-06T16:23:24.431Z,3.50
2018-03-06T16:25:53.344Z,2.57
2018-03-06T16:28:21.741Z,3.40
2018-03-06T16:30:54.629Z,3.00
2018-03-06T16:33:24.766Z,7.13
2018-03-06T16:35:53.483Z,2.97
2018-03-06T16:38:23.854Z,2.87
2018-03-06T16:40:53.973Z,2.30
2018-03-06T16:43:26.323Z,2.30
2018-03-06T16:45:54.981Z,2.60
2018-03-06T16:48:23.458Z,2.53
2018-03-06T16:50:51.808Z,2.67
2018-03-06T16:53:20.193Z,2.73
2018-03-06T16:55:51.428Z,2.60
2018-03-06T16:58:20.638Z,2.90
2018-03-06T17:00:49.937Z,2.87
2018-03-06T17:03:20.464Z,2.83
2018-03-06T17:05:50.125Z,2.60
2018-03-06T17:08:19.337Z,2.13
2018-03-06T17:10:50.619Z,4.20
2018-03-06T17:13:22.901Z,3.30
2018-03-06T17:15:53.033Z,3.23
2018-03-06T17:18:21.396Z,3.33
2018-03-06T17:20:52.702Z,4.00
2018-03-06T17:23:21.587Z,5.50
2018-03-06T17:25:50.691Z,4.90
2018-03-06T17:28:23.223Z,3.40
2018-03-06T17:30:52.495Z,3.93
2018-03-06T17:33:23.409Z,3.57
2018-03-06T17:35:55.189Z,3.47
2018-03-06T17:38:26.476Z,3.80
2018-03-06T17:40:57.249Z,3.60
2018-03-06T17:43:31.277Z,3.60
2018-03-06T17:46:00.957Z,3.70
2018-03-06T17:48:30.728Z,3.33
2018-03-06T17:51:00.990Z,3.30
2018-03-06T17:53:31.984Z,3.30
2018-03-06T17:56:03.338Z,4.43
2018-03-06T17:58:33.379Z,3.87
2018-03-06T18:01:04.083Z,3.40
2018-03-06T18:03:34.130Z,3.73
2018-03-06T18:06:05.654Z,3.30
2018-03-06T18:08:36.295Z,7.40
2018-03-06T18:11:05.627Z,6.00
2018-03-06T18:13:33.966Z,6.10
2018-03-06T18:16:03.091Z,5.00
2018-03-06T18:18:32.263Z,5.70
2018-03-06T18:21:00.739Z,5.77
2018-03-06T18:23:29.097Z,5.73
2018-03-06T18:25:57.564Z,5.47
2018-03-06T18:28:25.885Z,5.40
2018-03-06T18:30:54.234Z,5.73
2018-03-06T18:33:22.700Z,6.33
2018-03-06T18:35:51.054Z,10.70
2018-03-06T18:38:19.405Z,13.77
2018-03-06T18:40:47.786Z,11.03
2018-03-06T18:43:16.204Z,7.60
2018-03-06T18:45:45.455Z,7.53
2018-03-06T18:48:13.786Z,7.43
2018-03-06T18:51:00.733Z,10.00
2018-03-06T18:53:29.168Z,7.07
2018-03-06T18:55:58.410Z,8.00
2018-03-06T18:58:26.797Z,7.57
2018-03-06T19:14:40.665Z,6.87
2018-03-06T19:17:09.939Z,5.60
2018-03-06T19:19:39.293Z,5.83
2018-03-06T19:22:09.069Z,6.60
2018-03-06T19:24:38.312Z,6.13
2018-03-06T19:27:10.392Z,6.30
2018-03-06T19:29:38.802Z,6.30
2018-03-06T19:32:07.141Z,5.93
2018-03-06T19:34:35.431Z,6.70
2018-03-06T19:37:03.737Z,6.87
2018-03-06T19:39:32.051Z,6.60
2018-03-06T19:42:00.785Z,7.33
2018-03-06T19:44:29.176Z,7.10
2018-03-06T19:46:58.201Z,7.70
2018-03-06T19:49:26.840Z,6.60
2018-03-06T19:51:55.542Z,7.87
2018-03-06T19:54:25.070Z,7.73
2018-03-06T19:56:53.889Z,7.30
2018-03-06T19:59:22.225Z,6.97
2018-03-06T20:01:50.866Z,7.87
2018-03-06T20:04:19.609Z,6.90
2018-03-06T20:06:48.015Z,7.23
2018-03-06T20:09:16.732Z,7.50
2018-03-06T20:11:45.620Z,8.00
2018-03-06T20:14:14.361Z,7.97
2018-03-06T20:16:42.701Z,6.80
2018-03-06T20:19:16.855Z,7.30
2018-03-06T20:21:45.526Z,7.00
2018-03-06T20:24:19.760Z,8.30
2018-03-06T20:26:48.559Z,7.93
2018-03-06T20:29:16.983Z,9.60
2018-03-06T20:31:51.251Z,9.63
2018-03-06T20:34:20.009Z,11.30
2018-03-06T20:36:49.085Z,11.83
2018-03-06T20:39:23.462Z,11.70
2018-03-06T20:41:52.122Z,10.03
2018-03-06T20:44:21.191Z,8.90
2018-03-06T20:46:55.011Z,9.60
2018-03-06T20:49:23.334Z,9.53
2018-03-06T20:51:51.683Z,10.47
2018-03-06T20:54:26.386Z,10.17
2018-03-06T20:56:54.801Z,10.23
2018-03-06T20:59:23.902Z,9.60
2018-03-06T21:01:52.989Z,9.80
2018-03-06T21:04:23.013Z,11.90
2018-03-06T21:06:52.095Z,10.23
2018-03-06T21:09:20.425Z,10.73
2018-03-06T21:11:48.725Z,10.67
2018-03-06T21:14:17.028Z,10.93
2018-03-06T21:16:45.332Z,12.70
2018-03-06T21:19:14.419Z,11.40
2018-03-06T21:21:44.238Z,11.60
2018-03-06T21:24:12.547Z,12.77
2018-03-06T21:26:40.843Z,10.90
2018-03-06T21:29:09.203Z,13.23
2018-03-06T21:31:38.268Z,13.00
2018-03-06T21:34:06.587Z,13.20
2018-03-06T21:36:34.973Z,12.70
2018-03-06T21:39:03.279Z,14.23
2018-03-06T21:41:31.586Z,13.93
2018-03-06T21:43:59.944Z,14.30
2018-03-06T21:46:28.359Z,13.60
2018-03-06T21:48:56.655Z,13.10
2018-03-06T21:51:24.964Z,12.63
2018-03-06T21:53:53.264Z,15.30
2018-03-06T21:56:21.595Z,15.10
2018-03-06T21:58:50.684Z,14.03
2018-03-06T22:01:19.013Z,14.47
2018-03-06T22:03:47.294Z,14.47
2018-03-06T22:06:15.607Z,15.70
2018-03-06T22:08:43.952Z,16.17
2018-03-06T22:11:12.256Z,15.97
2018-03-06T22:13:40.550Z,15.70
2018-03-06T22:16:08.883Z,16.77
2018-03-06T22:18:37.223Z,17.10
2018-03-06T22:21:05.525Z,16.37
2018-03-06T22:23:33.953Z,15.80
2018-03-06T22:26:02.271Z,14.37
2018-03-06T22:28:30.602Z,13.30
2018-03-06T22:30:58.908Z,14.77
2018-03-06T22:33:27.220Z,15.47
2018-03-06T22:35:57.560Z,14.60
2018-03-06T22:38:26.706Z,18.27
2018-03-06T22:40:55.747Z,17.30
2018-03-06T22:43:24.036Z,17.17
2018-03-06T22:45:52.349Z,23.37
2018-03-06T22:48:20.643Z,21.23
2018-03-06T22:50:50.865Z,21.30
2018-03-06T22:53:19.164Z,18.90
2018-03-06T22:55:48.188Z,22.23
2018-03-06T22:58:16.482Z,21.73
2018-03-06T23:00:45.583Z,20.90
2018-03-06T23:03:15.447Z,23.73
2018-03-06T23:05:43.760Z,22.00
2018-03-06T23:08:12.056Z,21.13
2018-03-06T23:10:41.200Z,19.70
2018-03-06T23:13:09.496Z,19.90
2018-03-06T23:15:37.772Z,19.80
2018-03-06T23:18:06.070Z,20.93
2018-03-06T23:20:34.382Z,22.70
2018-03-06T23:23:03.432Z,21.10
2018-03-06T23:25:31.928Z,21.13
2018-03-06T23:28:00.309Z,21.70
2018-03-06T23:30:28.650Z,23.73
2018-03-06T23:32:56.935Z,23.80
2018-03-06T23:35:25.273Z,22.40
2018-03-06T23:37:53.589Z,23.03
2018-03-06T23:40:21.898Z,21.57
2018-03-06T23:42:50.205Z,23.50
2018-03-06T23:45:19.320Z,22.00
2018-03-06T23:47:48.280Z,22.97
2018-03-06T23:50:18.083Z,21.67
2018-03-06T23:52:48.576Z,22.73
2018-03-06T23:55:17.188Z,21.77
2018-03-06T23:57:45.851Z,23.90
